createdAt,value
2023-02-11T00:02:05.995Z,73.42
2023-02-11T00:04:34.664Z,72.77
2023-02-11T00:07:03.561Z,73.03
2023-02-11T00:09:32.660Z,73.22
2023-02-11T00:12:01.344Z,73.08
2023-02-11T00:14:30.162Z,72.63
2023-02-11T00:16:58.888Z,72.75
2023-02-11T00:19:27.518Z,72.88
2023-02-11T00:21:56.158Z,72.83
2023-02-11T00:24:25.048Z,72.70
2023-02-11T00:26:55.999Z,72.61
2023-02-11T00:29:25.681Z,72.92
2023-02-11T00:31:54.390Z,72.79
2023-02-11T00:34:26.122Z,72.49
2023-02-11T00:36:55.655Z,72.24
2023-02-11T00:39:28.634Z,72.65
2023-02-11T00:41:57.654Z,71.94
2023-02-11T00:44:28.797Z,72.05
2023-02-11T00:46:57.375Z,72.61
2023-02-11T00:49:26.213Z,72.65
2023-02-11T00:51:54.783Z,72.42
2023-02-11T00:54:23.514Z,72.28
2023-02-11T00:56:52.021Z,72.17
2023-02-11T00:59:20.856Z,72.69
2023-02-11T01:01:49.621Z,72.62
2023-02-11T01:04:18.412Z,72.39
2023-02-11T01:06:47.259Z,72.49
2023-02-11T01:09:15.935Z,72.48
2023-02-11T01:11:45.077Z,71.91
2023-02-11T01:14:13.767Z,72.76
2023-02-11T01:16:42.606Z,72.12
2023-02-11T01:19:11.239Z,72.09
2023-02-11T01:21:39.902Z,72.40
2023-02-11T01:24:08.809Z,72.51
2023-02-11T01:26:37.792Z,72.40
2023-02-11T01:29:06.482Z,71.97
2023-02-11T01:31:35.301Z,72.34
2023-02-11T01:34:04.119Z,71.66
2023-02-11T01:36:32.748Z,71.54
2023-02-11T01:39:01.982Z,72.10
2023-02-11T01:41:30.738Z,71.81
2023-02-11T01:43:59.249Z,72.33
2023-02-11T01:46:38.553Z,72.26
2023-02-11T01:49:22.371Z,72.44
2023-02-11T01:52:26.331Z,72.13
2023-02-11T01:55:18.969Z,72.16
2023-02-11T01:57:53.494Z,72.30
2023-02-11T02:00:39.904Z,72.18
2023-02-11T02:03:23.334Z,72.18
2023-02-11T02:06:00.309Z,71.71
2023-02-11T02:08:57.902Z,71.61
2023-02-11T02:11:26.940Z,71.63
2023-02-11T02:13:55.888Z,71.85
2023-02-11T02:16:33.368Z,71.22
2023-02-11T02:19:21.385Z,72.08
2023-02-11T02:21:53.073Z,71.48
2023-02-11T02:24:59.478Z,71.85
2023-02-11T02:27:50.309Z,71.66
2023-02-11T02:30:40.935Z,71.71
2023-02-11T02:33:38.571Z,71.65
2023-02-11T02:36:22.518Z,71.44
2023-02-11T02:39:01.492Z,71.66
2023-02-11T02:41:33.847Z,71.79
2023-02-11T02:44:03.433Z,72.00
2023-02-11T02:46:34.589Z,71.34
2023-02-11T02:49:03.479Z,71.48
2023-02-11T02:51:59.095Z,71.85
2023-02-11T02:55:05.933Z,71.23
2023-02-11T02:58:06.593Z,71.67
2023-02-11T03:01:07.539Z,71.01
2023-02-11T03:03:54.929Z,71.12
2023-02-11T03:06:53.400Z,70.83
2023-02-11T03:09:38.720Z,70.78
2023-02-11T03:12:09.804Z,70.68
2023-02-11T03:14:39.806Z,71.10
2023-02-11T03:17:10.162Z,71.00
2023-02-11T03:19:45.564Z,71.44
2023-02-11T03:22:38.480Z,70.99
2023-02-11T03:25:07.799Z,71.37
2023-02-11T03:27:53.163Z,71.12
2023-02-11T03:30:33.980Z,71.28
2023-02-11T03:33:15.480Z,71.25
2023-02-11T03:35:51.892Z,71.01
2023-02-11T03:38:39.126Z,71.67
2023-02-11T03:41:10.743Z,71.42
2023-02-11T03:43:47.261Z,71.33
2023-02-11T03:46:20.613Z,71.62
2023-02-11T03:49:03.770Z,71.30
2023-02-11T03:51:37.086Z,71.17
2023-02-11T03:54:11.647Z,71.41
2023-02-11T03:56:51.935Z,71.01
2023-02-11T03:59:20.625Z,71.45
2023-02-11T04:01:52.081Z,71.42
2023-02-11T04:04:21.163Z,71.40
2023-02-11T04:06:49.951Z,71.35
2023-02-11T04:09:18.600Z,71.13
2023-02-11T04:11:47.425Z,71.21
2023-02-11T04:14:16.102Z,70.98
2023-02-11T04:16:45.379Z,71.34
2023-02-11T04:19:14.288Z,70.73
2023-02-11T04:21:42.714Z,71.01
2023-02-11T04:24:11.828Z,70.78
2023-02-11T04:26:40.974Z,71.28
2023-02-11T04:29:09.900Z,70.96
2023-02-11T04:31:38.455Z,71.24
2023-02-11T04:34:07.547Z,70.92
2023-02-11T04:36:36.540Z,71.05
2023-02-11T04:39:05.763Z,71.04
2023-02-11T04:41:34.984Z,70.94
2023-02-11T04:44:03.846Z,71.54
2023-02-11T04:46:32.658Z,71.73
2023-02-11T04:49:01.452Z,71.46
2023-02-11T04:51:30.962Z,71.36
2023-02-11T04:53:59.601Z,70.96
2023-02-11T04:56:28.384Z,71.82
2023-02-11T04:58:59.463Z,71.02
2023-02-11T05:01:28.166Z,71.19
2023-02-11T05:03:57.920Z,71.04
2023-02-11T05:06:26.869Z,71.66
2023-02-11T05:08:55.600Z,71.27
2023-02-11T05:11:28.712Z,70.93
2023-02-11T05:13:58.022Z,71.62
2023-02-11T05:16:26.834Z,71.63
2023-02-11T05:18:56.629Z,71.98
2023-02-11T05:21:26.023Z,71.40
2023-02-11T05:23:54.861Z,71.05
2023-02-11T05:26:23.655Z,72.06
2023-02-11T05:28:52.223Z,71.90
2023-02-11T05:31:21.218Z,71.53
2023-02-11T05:33:49.790Z,71.42
2023-02-11T05:36:18.760Z,71.78
2023-02-11T05:38:49.785Z,71.15
2023-02-11T05:41:18.444Z,71.22
2023-02-11T05:43:51.731Z,70.98
2023-02-11T05:46:20.769Z,70.93
2023-02-11T05:48:49.526Z,70.88
2023-02-11T05:51:18.321Z,70.77
2023-02-11T05:53:47.090Z,70.54
2023-02-11T05:56:16.011Z,70.53
2023-02-11T05:58:44.737Z,70.50
2023-02-11T06:01:13.956Z,70.50
2023-02-11T06:03:42.874Z,70.53
2023-02-11T06:06:13.630Z,70.42
2023-02-11T06:08:42.510Z,71.00
2023-02-11T06:11:16.256Z,70.92
2023-02-11T06:13:45.161Z,70.59
2023-02-11T06:16:14.169Z,70.30
2023-02-11T06:18:43.142Z,70.08
2023-02-11T06:21:13.168Z,70.31
2023-02-11T06:23:42.450Z,70.26
2023-02-11T06:26:22.448Z,70.51
2023-02-11T06:28:51.491Z,70.28
2023-02-11T06:31:20.641Z,70.33
2023-02-11T06:33:50.948Z,70.35
2023-02-11T06:36:21.772Z,69.97
2023-02-11T06:38:51.132Z,69.83
2023-02-11T06:41:23.252Z,69.77
2023-02-11T06:43:53.897Z,69.55
2023-02-11T06:46:23.511Z,69.49
2023-02-11T06:48:52.432Z,69.28
2023-02-11T06:51:20.990Z,69.14
2023-02-11T06:53:49.846Z,69.15
2023-02-11T06:56:21.432Z,69.84
2023-02-11T06:58:54.331Z,69.62
2023-02-11T07:01:24.648Z,69.94
2023-02-11T07:03:53.632Z,69.23
2023-02-11T07:06:28.031Z,68.90
2023-02-11T07:08:57.362Z,69.16
2023-02-11T07:11:32.826Z,69.70
2023-02-11T07:14:09.242Z,69.35
2023-02-11T07:16:39.316Z,68.54
2023-02-11T07:19:08.140Z,68.27
2023-02-11T07:21:36.649Z,68.21
2023-02-11T07:24:11.571Z,67.89
2023-02-11T07:26:40.596Z,67.74
2023-02-11T07:29:09.572Z,67.14
2023-02-11T07:31:38.303Z,67.18
2023-02-11T07:34:07.151Z,67.42
2023-02-11T07:36:36.073Z,67.28
2023-02-11T07:39:04.871Z,67.07
2023-02-11T07:41:37.633Z,67.21
2023-02-11T07:44:06.916Z,66.51
2023-02-11T07:46:36.489Z,66.42
2023-02-11T07:49:05.099Z,65.83
2023-02-11T07:51:33.773Z,65.50
2023-02-11T07:54:03.611Z,67.01
2023-02-11T07:56:33.477Z,66.89
2023-02-11T07:59:04.286Z,66.26
2023-02-11T08:01:32.976Z,66.09
2023-02-11T08:04:03.772Z,66.71
2023-02-11T08:06:35.371Z,66.23
2023-02-11T08:09:10.032Z,66.56
2023-02-11T08:11:38.858Z,66.29
2023-02-11T08:14:07.655Z,66.95
2023-02-11T08:16:39.575Z,66.74
2023-02-11T08:19:14.408Z,67.26
2023-02-11T08:21:43.807Z,66.25
2023-02-11T08:24:12.782Z,66.83
2023-02-11T08:26:41.702Z,66.88
2023-02-11T08:29:15.165Z,67.69
2023-02-11T08:31:46.728Z,67.23
2023-02-11T08:34:19.783Z,67.16
2023-02-11T08:36:49.796Z,67.26
2023-02-11T08:39:21.987Z,67.20
2023-02-11T08:41:53.546Z,67.00
2023-02-11T08:44:23.083Z,67.16
2023-02-11T08:46:52.446Z,67.34
2023-02-11T08:49:21.745Z,67.57
2023-02-11T08:51:51.108Z,67.89
2023-02-11T08:54:20.332Z,67.35
2023-02-11T08:56:52.528Z,66.73
2023-02-11T08:59:21.399Z,67.72
2023-02-11T09:01:51.120Z,66.79
2023-02-11T09:04:20.221Z,67.66
2023-02-11T09:06:49.147Z,67.06
2023-02-11T09:09:18.282Z,67.79
2023-02-11T09:11:48.677Z,67.53
2023-02-11T09:14:20.762Z,67.59
2023-02-11T09:16:50.836Z,68.10
2023-02-11T09:19:20.866Z,67.87
2023-02-11T09:21:49.733Z,67.50
2023-02-11T09:24:19.258Z,67.72
2023-02-11T09:26:48.167Z,67.43
2023-02-11T09:29:17.381Z,67.47
2023-02-11T09:31:46.090Z,67.34
2023-02-11T09:34:16.598Z,67.71
2023-02-11T09:36:45.619Z,67.59
2023-02-11T09:39:18.427Z,67.23
2023-02-11T09:42:25.463Z,67.28
2023-02-11T09:44:54.441Z,67.54
2023-02-11T09:47:31.031Z,68.02
2023-02-11T09:50:07.850Z,68.08
2023-02-11T09:52:52.372Z,67.57
2023-02-11T09:55:29.901Z,68.23
2023-02-11T09:57:59.622Z,68.42
2023-02-11T10:00:45.829Z,67.37
2023-02-11T10:03:43.542Z,68.22
2023-02-11T10:06:40.097Z,67.40
2023-02-11T10:09:45.211Z,68.12
2023-02-11T10:12:32.590Z,68.04
2023-02-11T10:15:21.482Z,67.62
2023-02-11T10:18:03.209Z,68.31
2023-02-11T10:20:59.759Z,68.67
2023-02-11T10:23:34.103Z,68.72
2023-02-11T10:26:13.547Z,67.57
2023-02-11T10:28:46.832Z,67.54
2023-02-11T10:31:36.857Z,67.88
2023-02-11T10:34:12.976Z,67.76
2023-02-11T10:36:44.889Z,67.67
2023-02-11T10:39:16.958Z,67.87
2023-02-11T10:41:51.541Z,67.99
2023-02-11T10:44:31.299Z,68.27
2023-02-11T10:47:05.957Z,68.13
2023-02-11T10:49:40.735Z,68.48
2023-02-11T10:52:36.198Z,68.11
2023-02-11T10:55:15.456Z,67.96
2023-02-11T10:58:04.652Z,68.57
2023-02-11T11:00:39.916Z,68.64
2023-02-11T11:03:20.618Z,67.98
2023-02-11T11:06:10.687Z,68.75
2023-02-11T11:08:41.264Z,67.63
2023-02-11T11:11:22.281Z,68.01
2023-02-11T11:13:53.756Z,68.06
2023-02-11T11:16:32.848Z,68.29
2023-02-11T11:19:08.622Z,68.43
2023-02-11T11:21:56.427Z,68.55
2023-02-11T11:24:45.343Z,68.57
2023-02-11T11:27:25.535Z,68.75
2023-02-11T11:29:57.365Z,68.64
2023-02-11T11:32:37.836Z,68.86
2023-02-11T11:35:22.125Z,68.77
2023-02-11T11:37:54.548Z,69.11
2023-02-11T11:40:25.145Z,68.94
2023-02-11T11:43:15.179Z,68.90
2023-02-11T11:46:01.869Z,68.82
2023-02-11T11:48:43.796Z,69.01
2023-02-11T11:51:14.317Z,69.00
2023-02-11T11:54:13.083Z,68.44
2023-02-11T11:56:59.807Z,69.45
2023-02-11T11:59:29.366Z,69.21
2023-02-11T12:02:08.591Z,69.82
2023-02-11T12:05:01.514Z,69.59
2023-02-11T12:07:55.043Z,69.71
2023-02-11T12:11:00.874Z,69.47
2023-02-11T12:13:48.092Z,69.57
2023-02-11T12:16:31.258Z,69.94
2023-02-11T12:19:38.039Z,69.80
2023-02-11T12:22:22.390Z,69.99
2023-02-11T12:24:53.523Z,69.99
2023-02-11T12:27:47.239Z,70.36
2023-02-11T12:30:22.700Z,69.71
2023-02-11T12:32:53.985Z,69.48
2023-02-11T12:35:36.337Z,70.09
2023-02-11T12:38:22.836Z,70.27
2023-02-11T12:41:58.289Z,70.20
2023-02-11T12:44:52.465Z,70.76
2023-02-11T12:47:52.474Z,70.25
2023-02-11T12:50:21.062Z,70.67
2023-02-11T12:53:19.471Z,71.17
2023-02-11T12:55:52.671Z,70.59
2023-02-11T12:58:35.555Z,70.44
2023-02-11T13:01:17.475Z,71.13
2023-02-11T13:03:56.069Z,70.95
2023-02-11T13:06:35.417Z,70.66
2023-02-11T13:09:12.153Z,70.52
2023-02-11T13:11:52.617Z,70.56
2023-02-11T13:14:37.557Z,71.37
2023-02-11T13:17:23.040Z,71.57
2023-02-11T13:20:00.076Z,71.22
2023-02-11T13:23:02.733Z,71.81
2023-02-11T13:25:49.474Z,71.42
2023-02-11T13:28:33.259Z,71.99
2023-02-11T13:31:07.870Z,71.55
2023-02-11T13:33:44.018Z,71.58
2023-02-11T13:36:22.250Z,71.25
2023-02-11T13:38:58.032Z,71.75
2023-02-11T13:42:02.886Z,71.43
2023-02-11T13:44:35.455Z,72.28
2023-02-11T13:47:07.710Z,72.11
2023-02-11T13:49:50.471Z,71.92
2023-02-11T13:52:33.375Z,71.51
2023-02-11T13:55:22.106Z,72.32
2023-02-11T13:58:08.930Z,72.50
2023-02-11T14:00:37.724Z,71.95
2023-02-11T14:03:47.131Z,71.56
2023-02-11T14:06:38.509Z,72.69
2023-02-11T14:09:10.129Z,72.04
2023-02-11T14:11:44.882Z,71.99
2023-02-11T14:14:24.593Z,72.10
2023-02-11T14:17:01.783Z,72.37
2023-02-11T14:19:47.248Z,72.47
2023-02-11T14:22:24.552Z,71.61
2023-02-11T14:25:04.948Z,71.78
2023-02-11T14:27:43.149Z,72.33
2023-02-11T14:30:27.816Z,72.38
2023-02-11T14:33:05.955Z,72.52
2023-02-11T14:36:06.496Z,72.38
2023-02-11T14:39:09.757Z,72.59
2023-02-11T14:41:45.092Z,73.47
2023-02-11T14:44:22.983Z,72.95
2023-02-11T14:46:54.213Z,73.15
2023-02-11T14:49:35.814Z,73.34
2023-02-11T14:52:23.640Z,72.71
2023-02-11T14:54:58.106Z,73.17
2023-02-11T14:57:28.306Z,72.73
2023-02-11T15:00:05.415Z,72.35
2023-02-11T15:02:37.812Z,72.53
2023-02-11T15:05:29.753Z,72.71
2023-02-11T15:08:03.621Z,72.84
2023-02-11T15:10:34.249Z,73.09
2023-02-11T15:13:05.916Z,72.17
2023-02-11T15:15:37.706Z,72.44
2023-02-11T15:18:06.858Z,72.96
2023-02-11T15:20:36.434Z,72.96
2023-02-11T15:23:12.949Z,72.50
2023-02-11T15:25:53.470Z,72.64
2023-02-11T15:28:30.850Z,72.21
2023-02-11T15:31:13.842Z,72.81
2023-02-11T15:33:42.775Z,72.72
2023-02-11T15:36:16.828Z,72.62
2023-02-11T15:38:45.938Z,72.75
2023-02-11T15:41:37.907Z,73.02
2023-02-11T15:44:06.755Z,73.02
2023-02-11T15:46:40.901Z,72.35
2023-02-11T15:49:19.972Z,72.50
2023-02-11T15:51:49.035Z,72.98
2023-02-11T15:54:22.004Z,72.60
2023-02-11T15:56:56.180Z,73.00
2023-02-11T15:59:32.154Z,72.68
2023-02-11T16:02:17.356Z,72.42
2023-02-11T16:04:57.926Z,72.31
2023-02-11T16:07:48.715Z,73.20
2023-02-11T16:10:28.023Z,73.08
2023-02-11T16:13:05.440Z,72.82
2023-02-11T16:15:35.286Z,73.19
2023-02-11T16:18:15.973Z,73.50
2023-02-11T16:20:49.863Z,72.84
2023-02-11T16:23:25.336Z,73.07
2023-02-11T16:26:03.295Z,72.97
2023-02-11T16:28:33.180Z,72.92
2023-02-11T16:31:02.749Z,72.81
2023-02-11T16:33:32.208Z,72.31
2023-02-11T16:36:02.918Z,73.06
2023-02-11T16:38:34.120Z,72.95
2023-02-11T16:41:03.287Z,72.83
2023-02-11T16:43:34.206Z,72.88
2023-02-11T16:46:03.446Z,73.42
2023-02-11T16:48:34.268Z,73.06
2023-02-11T16:51:03.164Z,72.67
2023-02-11T16:53:33.066Z,73.03
2023-02-11T16:56:01.846Z,72.78
2023-02-11T16:58:31.012Z,72.78
2023-02-11T17:01:00.003Z,73.13
2023-02-11T17:03:30.376Z,73.21
2023-02-11T17:06:00.051Z,73.48
2023-02-11T17:08:29.160Z,72.80
2023-02-11T17:10:58.095Z,73.21
2023-02-11T17:13:26.972Z,73.26
2023-02-11T17:15:55.906Z,73.06
2023-02-11T17:18:25.458Z,73.02
2023-02-11T17:20:54.310Z,72.79
2023-02-11T17:23:22.989Z,72.94
2023-02-11T17:25:58.022Z,72.80
2023-02-11T17:28:27.474Z,72.68
2023-02-11T17:30:59.244Z,72.60
2023-02-11T17:33:28.391Z,72.68
2023-02-11T17:35:57.000Z,73.00
2023-02-11T17:38:25.629Z,72.51
2023-02-11T17:41:02.636Z,73.11
2023-02-11T17:43:32.763Z,73.19
2023-02-11T17:46:01.575Z,73.01
2023-02-11T17:48:30.320Z,72.93
2023-02-11T17:50:59.261Z,73.35
2023-02-11T17:53:28.020Z,72.96
2023-02-11T17:55:57.172Z,73.12
2023-02-11T17:58:25.821Z,73.29
2023-02-11T18:00:59.633Z,73.29
2023-02-11T18:03:27.923Z,72.82
2023-02-11T18:06:01.455Z,72.98
2023-02-11T18:08:30.713Z,73.00
2023-02-11T18:10:59.323Z,72.79
2023-02-11T18:13:29.724Z,72.38
2023-02-11T18:16:04.279Z,72.57
2023-02-11T18:18:33.033Z,72.64
2023-02-11T18:21:09.750Z,72.44
2023-02-11T18:23:38.579Z,72.45
2023-02-11T18:26:13.402Z,72.55
2023-02-11T18:28:45.298Z,73.02
2023-02-11T18:31:14.998Z,73.10
2023-02-11T18:33:44.005Z,72.88
2023-02-11T18:36:16.388Z,72.95
2023-02-11T18:38:45.508Z,72.85
2023-02-11T18:41:15.417Z,72.73
2023-02-11T18:43:44.185Z,73.02
2023-02-11T18:46:15.823Z,72.70
2023-02-11T18:48:48.354Z,72.83
2023-02-11T18:51:19.380Z,72.65
2023-02-11T18:53:48.548Z,72.80
2023-02-11T18:56:20.111Z,73.06
2023-02-11T18:58:49.648Z,72.61
2023-02-11T19:01:21.539Z,72.72
2023-02-11T19:03:50.622Z,73.05
2023-02-11T19:06:26.313Z,72.67
2023-02-11T19:08:59.411Z,72.84
2023-02-11T19:11:49.574Z,72.80
2023-02-11T19:14:29.439Z,72.76
2023-02-11T19:17:00.617Z,72.61
2023-02-11T19:19:31.825Z,72.55
2023-02-11T19:22:01.860Z,72.41
2023-02-11T19:24:31.496Z,72.32
2023-02-11T19:27:04.051Z,72.16
2023-02-11T19:29:35.778Z,72.27
2023-02-11T19:32:09.467Z,72.23
2023-02-11T19:34:41.947Z,72.12
2023-02-11T19:37:13.488Z,72.33
2023-02-11T19:39:43.893Z,72.59
2023-02-11T19:42:13.402Z,72.71
2023-02-11T19:44:42.045Z,72.43
2023-02-11T19:47:11.078Z,72.14
2023-02-11T19:49:41.794Z,71.98
2023-02-11T19:52:10.450Z,72.29
2023-02-11T19:54:39.211Z,72.29
2023-02-11T19:57:07.628Z,72.21
2023-02-11T19:59:36.250Z,72.16
2023-02-11T20:02:05.073Z,72.30
2023-02-11T20:04:34.070Z,71.97
2023-02-11T20:07:02.541Z,72.34
2023-02-11T20:09:32.508Z,72.52
2023-02-11T20:12:01.318Z,72.02
2023-02-11T20:14:29.811Z,72.65
2023-02-11T20:16:58.468Z,72.74
2023-02-11T20:19:28.512Z,72.35
2023-02-11T20:21:57.569Z,72.85
2023-02-11T20:24:26.736Z,72.42
2023-02-11T20:26:58.481Z,72.84
2023-02-11T20:29:30.326Z,73.03
2023-02-11T20:31:59.155Z,72.21
2023-02-11T20:34:27.900Z,72.55
2023-02-11T20:36:57.152Z,72.07
2023-02-11T20:39:27.477Z,72.04
2023-02-11T20:41:57.105Z,72.02
2023-02-11T20:44:28.406Z,71.79
2023-02-11T20:46:59.470Z,72.24
2023-02-11T20:49:29.079Z,71.82
2023-02-11T20:52:00.946Z,71.62
2023-02-11T20:54:31.006Z,71.71
2023-02-11T20:57:00.377Z,72.33
2023-02-11T20:59:29.308Z,72.08
2023-02-11T21:01:58.010Z,72.03
2023-02-11T21:04:31.066Z,72.01
2023-02-11T21:07:02.395Z,71.33
2023-02-11T21:09:33.770Z,71.78
2023-02-11T21:12:03.067Z,71.74
2023-02-11T21:14:31.881Z,72.03
2023-02-11T21:17:00.739Z,72.20
2023-02-11T21:19:29.517Z,72.23
2023-02-11T21:22:01.283Z,72.13
2023-02-11T21:24:31.649Z,71.96
2023-02-11T21:27:00.432Z,72.06
2023-02-11T21:29:34.008Z,72.15
2023-02-11T21:32:05.690Z,72.13
2023-02-11T21:34:34.533Z,71.69
2023-02-11T21:37:04.492Z,71.79
2023-02-11T21:39:33.315Z,71.75
2023-02-11T21:42:01.954Z,71.52
2023-02-11T21:44:32.751Z,71.44
2023-02-11T21:47:03.703Z,71.71
2023-02-11T21:49:32.492Z,72.34
2023-02-11T21:52:01.356Z,71.96
2023-02-11T21:54:32.751Z,71.79
2023-02-11T21:57:03.657Z,71.98
2023-02-11T21:59:35.235Z,72.08
2023-02-11T22:02:03.769Z,71.58
2023-02-11T22:04:32.450Z,71.39
2023-02-11T22:07:01.257Z,72.26
2023-02-11T22:09:30.615Z,72.19
2023-02-11T22:11:59.735Z,72.39
2023-02-11T22:14:30.648Z,71.71
2023-02-11T22:17:03.402Z,72.25
2023-02-11T22:19:37.954Z,71.79
2023-02-11T22:22:08.756Z,72.12
2023-02-11T22:24:37.555Z,72.06
2023-02-11T22:27:06.234Z,71.47
2023-02-11T22:29:34.944Z,71.46
2023-02-11T22:32:03.637Z,71.40
2023-02-11T22:34:32.654Z,71.27
2023-02-11T22:37:02.913Z,71.53
2023-02-11T22:39:32.168Z,71.53
2023-02-11T22:42:00.888Z,71.27
2023-02-11T22:44:29.748Z,71.68
2023-02-11T22:46:58.851Z,71.26
2023-02-11T22:49:27.846Z,71.75
2023-02-11T22:51:56.573Z,71.20
2023-02-11T22:54:25.206Z,71.33
2023-02-11T22:56:54.344Z,71.17
2023-02-11T22:59:23.126Z,71.07
2023-02-11T23:01:51.901Z,71.36
2023-02-11T23:04:21.712Z,71.02
2023-02-11T23:06:51.024Z,70.75
2023-02-11T23:09:19.789Z,70.77
2023-02-11T23:11:50.103Z,70.83
2023-02-11T23:14:18.969Z,71.07
2023-02-11T23:16:50.740Z,70.74
2023-02-11T23:19:20.269Z,71.04
2023-02-11T23:21:53.407Z,70.67
2023-02-11T23:24:24.286Z,71.02
2023-02-11T23:26:52.986Z,70.59
2023-02-11T23:29:21.809Z,70.50
2023-02-11T23:31:50.811Z,70.64
2023-02-11T23:34:24.508Z,71.14
2023-02-11T23:36:53.518Z,70.95
2023-02-11T23:39:22.189Z,70.73
2023-02-11T23:41:53.092Z,70.80
2023-02-11T23:44:21.977Z,71.37
2023-02-11T23:46:53.294Z,71.01
2023-02-11T23:49:22.152Z,70.80
2023-02-11T23:51:50.696Z,71.26
2023-02-11T23:54:21.798Z,70.81
2023-02-11T23:56:50.492Z,70.48
2023-02-11T23:59:19.029Z,70.27
